EHWO Airport Information

Runway Information
Runway 07 Length 7996 ft width 148 ft
Elevation 39 ft Threshold 0 ft Heading 69
Runway 25 Length 7996 ft Width 148 ft
Elevation 63 ft Threshold 0 ft Heading 249
Airport Frequencies
Type APP Name RAPCON WES Frequency 123.575 MHZ
Type ARR Name ARRIVAL Frequency 123.575 MHZ
Type TWR Name TWR Frequency 118.5 MHZ
Airport Navaids
Type TACAN Name Woensdrecht Frequency 115000 KHZ
Airport Weather Information & NOTAM
ADDS - METARS form results

(0746 UTC 16 December 2018)
Data provider http://aviationweather.gov/metar/data/
 
METAR text: EHWO 160725Z AUTO 22005KT 180V240 1500 BR OVC001 03/03 Q1009 RED
Conditions at: EHWO (WOENSDRECHT RNLA, NL) observed 0725 UTC 16 December 2018
Temperature: 3.0°C (37°F)
Dewpoint: 3.0°C (37°F) [RH = 100%]
Pressure (altimeter): 29.79 inches Hg (1009.0 mb)
Winds: from the SW (220 degrees) at 6 MPH (5 knots; 2.6 m/s)
Visibility: 0.93 miles (1.50 km)
Ceiling: 100 feet AGL
Clouds: overcast cloud deck at 100 feet AGL
Weather: BR  (mist)

METAR text: EHWO 160719Z AUTO 21005KT 170V240 1500 BR OVC001 02/02 Q1008 RED
Conditions at: EHWO (WOENSDRECHT RNLA, NL) observed 0719 UTC 16 December 2018
Temperature: 2.0°C (36°F)
Dewpoint: 2.0°C (36°F) [RH = 100%]
Pressure (altimeter): 29.76 inches Hg (1008.0 mb)
Winds: from the SSW (210 degrees) at 6 MPH (5 knots; 2.6 m/s)
Visibility: 0.93 miles (1.50 km)
Ceiling: 100 feet AGL
Clouds: overcast cloud deck at 100 feet AGL
Weather: BR  (mist)

METAR text: EHWO 160655Z AUTO 20005KT 180V250 1700 BR OVC001 02/02 Q1008 RED
Conditions at: EHWO (WOENSDRECHT RNLA, NL) observed 0655 UTC 16 December 2018
Temperature: 2.0°C (36°F)
Dewpoint: 2.0°C (36°F) [RH = 100%]
Pressure (altimeter): 29.76 inches Hg (1008.0 mb)
Winds: from the SSW (200 degrees) at 6 MPH (5 knots; 2.6 m/s)
Visibility: 1.06 miles (1.71 km)
Ceiling: 100 feet AGL
Clouds: overcast cloud deck at 100 feet AGL
Weather: BR  (mist)